sensor_id;sensor_type;location;lat;lon;timestamp;pressure;altitude;pressure_sealevel;temperature;humidity
10992;BME280;5549;47.028;15.514;2022-10-03T00:00:10;96751.75;;;13.59;82.06
10992;BME280;5549;47.028;15.514;2022-10-03T00:03:24;96751.75;;;13.59;81.54
10992;BME280;5549;47.028;15.514;2022-10-03T00:06:12;96756.72;;;13.62;81.30
10992;BME280;5549;47.028;15.514;2022-10-03T00:09:25;96751.47;;;13.62;80.91
10992;BME280;5549;47.028;15.514;2022-10-03T00:12:13;96747.28;;;13.60;80.36
10992;BME280;5549;47.028;15.514;2022-10-03T00:14:52;96742.03;;;13.60;80.06
10992;BME280;5549;47.028;15.514;2022-10-03T00:17:37;96744.50;;;13.61;79.86
10992;BME280;5549;47.028;15.514;2022-10-03T00:20:35;96744.69;;;13.50;79.52
10992;BME280;5549;47.028;15.514;2022-10-03T00:23:12;96748.47;;;13.38;80.25
10992;BME280;5549;47.028;15.514;2022-10-03T00:25:53;96750.13;;;13.29;80.45
10992;BME280;5549;47.028;15.514;2022-10-03T00:28:46;96756.94;;;13.22;80.99
10992;BME280;5549;47.028;15.514;2022-10-03T00:31:22;96760.81;;;13.28;80.86
10992;BME280;5549;47.028;15.514;2022-10-03T00:34:04;96771.50;;;13.36;80.58
10992;BME280;5549;47.028;15.514;2022-10-03T00:36:47;96780.13;;;13.28;81.01
10992;BME280;5549;47.028;15.514;2022-10-03T00:39:37;96781.50;;;13.23;81.38
10992;BME280;5549;47.028;15.514;2022-10-03T00:42:56;96782.63;;;13.20;81.38
10992;BME280;5549;47.028;15.514;2022-10-03T00:45:55;96780.97;;;13.19;81.67
10992;BME280;5549;47.028;15.514;2022-10-03T00:49:12;96785.41;;;13.19;81.99
10992;BME280;5549;47.028;15.514;2022-10-03T00:52:02;96785.13;;;13.22;81.78
10992;BME280;5549;47.028;15.514;2022-10-03T00:54:47;96785.13;;;13.22;81.70
10992;BME280;5549;47.028;15.514;2022-10-03T00:57:52;96788.47;;;13.24;81.28
10992;BME280;5549;47.028;15.514;2022-10-03T01:00:28;96789.84;;;13.28;81.19
10992;BME280;5549;47.028;15.514;2022-10-03T01:03:20;96791.78;;;13.26;78.10
10992;BME280;5549;47.028;15.514;2022-10-03T01:06:19;96789.44;;;13.23;78.88
10992;BME280;5549;47.028;15.514;2022-10-03T01:09:27;96787.63;;;13.23;79.46
10992;BME280;5549;47.028;15.514;2022-10-03T01:12:31;96782.22;;;13.25;77.99
10992;BME280;5549;47.028;15.514;2022-10-03T01:15:16;96776.50;;;13.29;76.76
10992;BME280;5549;47.028;15.514;2022-10-03T01:18:21;96774.00;;;13.28;72.88
10992;BME280;5549;47.028;15.514;2022-10-03T01:21:01;96769.00;;;13.34;73.41
10992;BME280;5549;47.028;15.514;2022-10-03T01:24:18;96775.69;;;13.19;69.64
10992;BME280;5549;47.028;15.514;2022-10-03T01:26:57;96773.19;;;13.27;69.77
10992;BME280;5549;47.028;15.514;2022-10-03T01:29:45;96771.78;;;13.33;70.18
10992;BME280;5549;47.028;15.514;2022-10-03T01:32:43;96771.66;;;13.25;69.24
10992;BME280;5549;47.028;15.514;2022-10-03T01:35:26;96764.59;;;13.25;69.25
10992;BME280;5549;47.028;15.514;2022-10-03T01:38:11;96763.06;;;13.23;69.22
10992;BME280;5549;47.028;15.514;2022-10-03T01:40:49;96765.28;;;13.18;68.69
10992;BME280;5549;47.028;15.514;2022-10-03T01:43:33;96768.75;;;13.18;68.61
10992;BME280;5549;47.028;15.514;2022-10-03T01:46:16;96765.97;;;13.20;69.94
10992;BME280;5549;47.028;15.514;2022-10-03T01:48:54;96763.03;;;13.13;73.59
10992;BME280;5549;47.028;15.514;2022-10-03T01:51:41;96757.34;;;13.08;74.19
10992;BME280;5549;47.028;15.514;2022-10-03T01:54:17;96760.41;;;13.03;74.50
10992;BME280;5549;47.028;15.514;2022-10-03T01:56:55;96763.31;;;13.00;74.32
10992;BME280;5549;47.028;15.514;2022-10-03T01:59:37;96762.75;;;12.97;76.41
10992;BME280;5549;47.028;15.514;2022-10-03T02:02:22;96767.63;;;12.92;76.46
10992;BME280;5549;47.028;15.514;2022-10-03T02:04:59;96758.31;;;12.88;78.22
10992;BME280;5549;47.028;15.514;2022-10-03T02:07:42;96754.69;;;12.79;78.90
10992;BME280;5549;47.028;15.514;2022-10-03T02:10:27;96750.28;;;12.79;78.45
10992;BME280;5549;47.028;15.514;2022-10-03T02:13:12;96757.34;;;12.79;78.31
10992;BME280;5549;47.028;15.514;2022-10-03T02:16:00;96760.13;;;12.77;78.39
10992;BME280;5549;47.028;15.514;2022-10-03T02:18:54;96751.50;;;12.75;78.81
10992;BME280;5549;47.028;15.514;2022-10-03T02:21:28;96757.63;;;12.76;78.74
10992;BME280;5549;47.028;15.514;2022-10-03T02:24:20;96758.59;;;12.75;79.01
10992;BME280;5549;47.028;15.514;2022-10-03T02:30:18;96757.19;;;12.71;78.82
10992;BME280;5549;47.028;15.514;2022-10-03T02:33:34;96760.78;;;12.70;78.73
10992;BME280;5549;47.028;15.514;2022-10-03T02:36:42;96767.31;;;12.66;78.93
10992;BME280;5549;47.028;15.514;2022-10-03T02:43:01;96779.78;;;12.64;78.57
10992;BME280;5549;47.028;15.514;2022-10-03T02:46:25;96778.41;;;12.60;78.63
10992;BME280;5549;47.028;15.514;2022-10-03T02:56:13;96800.16;;;12.62;78.91
10992;BME280;5549;47.028;15.514;2022-10-03T02:59:23;96793.94;;;12.63;78.87
10992;BME280;5549;47.028;15.514;2022-10-03T03:05:38;96804.97;;;12.37;80.50
10992;BME280;5549;47.028;15.514;2022-10-03T03:08:45;96803.16;;;12.07;81.11
10992;BME280;5549;47.028;15.514;2022-10-03T03:12:01;96806.81;;;12.16;80.64
10992;BME280;5549;47.028;15.514;2022-10-03T03:18:21;96809.66;;;12.34;79.17
10992;BME280;5549;47.028;15.514;2022-10-03T03:24:13;96813.69;;;12.38;77.50
10992;BME280;5549;47.028;15.514;2022-10-03T03:27:04;96824.13;;;12.49;77.56
10992;BME280;5549;47.028;15.514;2022-10-03T03:29:47;96821.66;;;12.57;78.00
10992;BME280;5549;47.028;15.514;2022-10-03T03:32:34;96822.06;;;12.52;74.68
10992;BME280;5549;47.028;15.514;2022-10-03T03:35:16;96831.06;;;12.50;75.37
10992;BME280;5549;47.028;15.514;2022-10-03T03:37:56;96836.34;;;12.60;75.99
10992;BME280;5549;47.028;15.514;2022-10-03T03:40:41;96830.22;;;12.49;74.31
10992;BME280;5549;47.028;15.514;2022-10-03T03:43:37;96833.28;;;12.55;73.29
10992;BME280;5549;47.028;15.514;2022-10-03T03:46:25;96826.09;;;12.57;71.93
10992;BME280;5549;47.028;15.514;2022-10-03T03:49:12;96829.56;;;12.67;71.84
10992;BME280;5549;47.028;15.514;2022-10-03T03:52:04;96834.88;;;12.76;71.25
10992;BME280;5549;47.028;15.514;2022-10-03T03:55:04;96830.69;;;12.74;70.04
10992;BME280;5549;47.028;15.514;2022-10-03T03:58:06;96826.28;;;12.84;71.54
10992;BME280;5549;47.028;15.514;2022-10-03T04:01:26;96830.59;;;12.85;71.15
10992;BME280;5549;47.028;15.514;2022-10-03T04:04:20;96828.78;;;12.85;69.78
10992;BME280;5549;47.028;15.514;2022-10-03T04:07:05;96830.03;;;12.91;70.46
10992;BME280;5549;47.028;15.514;2022-10-03T04:10:16;96827.00;;;12.96;70.96
10992;BME280;5549;47.028;15.514;2022-10-03T04:13:22;96829.09;;;13.02;70.37
10992;BME280;5549;47.028;15.514;2022-10-03T04:16:15;96824.91;;;13.09;70.03
10992;BME280;5549;47.028;15.514;2022-10-03T04:19:18;96829.78;;;13.13;70.03
10992;BME280;5549;47.028;15.514;2022-10-03T04:22:16;96834.09;;;13.14;71.58
10992;BME280;5549;47.028;15.514;2022-10-03T04:28:29;96825.88;;;12.98;73.55
10992;BME280;5549;47.028;15.514;2022-10-03T04:31:19;96833.09;;;12.96;73.21
10992;BME280;5549;47.028;15.514;2022-10-03T04:34:06;96834.75;;;12.97;70.94
10992;BME280;5549;47.028;15.514;2022-10-03T04:37:00;96836.44;;;12.98;71.39
10992;BME280;5549;47.028;15.514;2022-10-03T04:39:40;96837.00;;;13.02;71.98
10992;BME280;5549;47.028;15.514;2022-10-03T04:42:19;96828.94;;;13.03;71.41
10992;BME280;5549;47.028;15.514;2022-10-03T04:45:23;96831.31;;;13.06;69.41
10992;BME280;5549;47.028;15.514;2022-10-03T04:48:05;96837.00;;;13.11;70.94
10992;BME280;5549;47.028;15.514;2022-10-03T04:50:40;96835.34;;;13.10;75.38
10992;BME280;5549;47.028;15.514;2022-10-03T04:53:22;96833.66;;;13.00;75.74
10992;BME280;5549;47.028;15.514;2022-10-03T04:56:09;96836.16;;;12.92;75.84
10992;BME280;5549;47.028;15.514;2022-10-03T04:58:49;96827.69;;;12.88;75.78
10992;BME280;5549;47.028;15.514;2022-10-03T05:01:32;96846.66;;;12.82;74.88
10992;BME280;5549;47.028;15.514;2022-10-03T05:04:12;96840.56;;;12.81;74.78
10992;BME280;5549;47.028;15.514;2022-10-03T05:06:58;96855.53;;;12.81;73.28
10992;BME280;5549;47.028;15.514;2022-10-03T05:09:38;96860.16;;;12.48;72.82
10992;BME280;5549;47.028;15.514;2022-10-03T05:12:15;96855.22;;;12.65;67.88
10992;BME280;5549;47.028;15.514;2022-10-03T05:15:04;96852.22;;;12.79;64.52
10992;BME280;5549;47.028;15.514;2022-10-03T05:17:48;96863.75;;;12.97;63.36
10992;BME280;5549;47.028;15.514;2022-10-03T05:20:42;96860.91;;;13.20;63.40
10992;BME280;5549;47.028;15.514;2022-10-03T05:23:28;96865.22;;;13.30;65.55
10992;BME280;5549;47.028;15.514;2022-10-03T05:26:06;96870.03;;;13.15;62.70
10992;BME280;5549;47.028;15.514;2022-10-03T05:28:46;96882.03;;;13.39;65.29
10992;BME280;5549;47.028;15.514;2022-10-03T05:31:31;96882.16;;;13.37;68.74
10992;BME280;5549;47.028;15.514;2022-10-03T05:34:15;96887.56;;;13.36;69.90
10992;BME280;5549;47.028;15.514;2022-10-03T05:37:19;96890.06;;;13.18;68.44
10992;BME280;5549;47.028;15.514;2022-10-03T05:39:57;96892.28;;;13.23;69.27
10992;BME280;5549;47.028;15.514;2022-10-03T05:42:38;96897.50;;;13.03;66.83
10992;BME280;5549;47.028;15.514;2022-10-03T05:45:25;96896.94;;;13.09;66.75
10992;BME280;5549;47.028;15.514;2022-10-03T05:48:13;96905.28;;;13.14;67.47
10992;BME280;5549;47.028;15.514;2022-10-03T05:51:33;96905.75;;;13.29;70.51
10992;BME280;5549;47.028;15.514;2022-10-03T05:54:46;96908.88;;;13.13;64.82
10992;BME280;5549;47.028;15.514;2022-10-03T05:57:50;96912.84;;;13.38;67.39
10992;BME280;5549;47.028;15.514;2022-10-03T06:00:40;96917.97;;;13.49;63.54
10992;BME280;5549;47.028;15.514;2022-10-03T06:04:11;96910.63;;;13.72;62.38
10992;BME280;5549;47.028;15.514;2022-10-03T06:07:03;96912.84;;;13.96;62.86
10992;BME280;5549;47.028;15.514;2022-10-03T06:10:25;96912.03;;;13.96;57.78
10992;BME280;5549;47.028;15.514;2022-10-03T06:13:12;96918.47;;;14.30;62.20
10992;BME280;5549;47.028;15.514;2022-10-03T06:15:52;96911.66;;;14.37;61.96
10992;BME280;5549;47.028;15.514;2022-10-03T06:18:52;96914.47;;;14.26;57.90
10992;BME280;5549;47.028;15.514;2022-10-03T06:21:57;96923.06;;;14.28;58.59
10992;BME280;5549;47.028;15.514;2022-10-03T06:28:40;96926.25;;;14.41;55.13
10992;BME280;5549;47.028;15.514;2022-10-03T06:35:21;96926.13;;;14.80;57.68
10992;BME280;5549;47.028;15.514;2022-10-03T06:51:48;96944.41;;;14.64;69.46
10992;BME280;5549;47.028;15.514;2022-10-03T07:01:04;96951.72;;;14.33;72.18
10992;BME280;5549;47.028;15.514;2022-10-03T07:07:41;96953.91;;;14.37;71.92
10992;BME280;5549;47.028;15.514;2022-10-03T07:10:54;96948.91;;;14.34;70.22
10992;BME280;5549;47.028;15.514;2022-10-03T07:13:59;96950.75;;;14.24;71.05
10992;BME280;5549;47.028;15.514;2022-10-03T07:20:10;96961.47;;;14.13;73.16
10992;BME280;5549;47.028;15.514;2022-10-03T07:29:56;96973.31;;;13.99;74.77
10992;BME280;5549;47.028;15.514;2022-10-03T07:33:09;96975.38;;;13.96;75.29
10992;BME280;5549;47.028;15.514;2022-10-03T07:36:28;96965.66;;;13.96;74.87
10992;BME280;5549;47.028;15.514;2022-10-03T07:39:51;96990.13;;;13.98;75.10
10992;BME280;5549;47.028;15.514;2022-10-03T07:43:18;96993.03;;;14.05;75.04
10992;BME280;5549;47.028;15.514;2022-10-03T07:46:29;96989.69;;;14.03;74.32
10992;BME280;5549;47.028;15.514;2022-10-03T07:49:30;96990.69;;;14.02;71.68
10992;BME280;5549;47.028;15.514;2022-10-03T07:52:48;96994.00;;;14.04;71.74
10992;BME280;5549;47.028;15.514;2022-10-03T07:58:55;96991.22;;;13.96;75.28
10992;BME280;5549;47.028;15.514;2022-10-03T08:01:56;96981.22;;;13.90;70.40
10992;BME280;5549;47.028;15.514;2022-10-03T08:05:11;96989.97;;;14.00;68.68
10992;BME280;5549;47.028;15.514;2022-10-03T08:08:17;96997.75;;;14.11;70.45
10992;BME280;5549;47.028;15.514;2022-10-03T08:11:23;96998.16;;;14.16;71.44
10992;BME280;5549;47.028;15.514;2022-10-03T08:14:17;96989.69;;;14.22;72.67
10992;BME280;5549;47.028;15.514;2022-10-03T08:20:37;97002.63;;;14.44;69.47
10992;BME280;5549;47.028;15.514;2022-10-03T08:27:02;96999.22;;;14.62;66.81
10992;BME280;5549;47.028;15.514;2022-10-03T08:30:16;97000.03;;;14.72;63.06
10992;BME280;5549;47.028;15.514;2022-10-03T08:33:31;97000.69;;;14.84;61.13
10992;BME280;5549;47.028;15.514;2022-10-03T08:36:39;96996.06;;;14.95;65.75
10992;BME280;5549;47.028;15.514;2022-10-03T08:39:13;97004.38;;;15.00;69.50
10992;BME280;5549;47.028;15.514;2022-10-03T08:42:46;96996.84;;;15.05;66.26
10992;BME280;5549;47.028;15.514;2022-10-03T08:46:04;97002.75;;;15.27;65.85
10992;BME280;5549;47.028;15.514;2022-10-03T08:52:12;96993.78;;;15.65;68.84
10992;BME280;5549;47.028;15.514;2022-10-03T08:55:13;96994.41;;;15.77;66.14
10992;BME280;5549;47.028;15.514;2022-10-03T08:58:35;96993.44;;;15.95;64.60
10992;BME280;5549;47.028;15.514;2022-10-03T09:01:46;96994.03;;;16.07;62.90
10992;BME280;5549;47.028;15.514;2022-10-03T09:04:57;96991.53;;;16.23;63.50
10992;BME280;5549;47.028;15.514;2022-10-03T09:11:51;96992.66;;;17.24;60.52
10992;BME280;5549;47.028;15.514;2022-10-03T09:18:03;96987.44;;;18.07;51.60
10992;BME280;5549;47.028;15.514;2022-10-03T09:24:39;96991.72;;;18.89;51.75
10992;BME280;5549;47.028;15.514;2022-10-03T09:28:07;96982.34;;;19.18;50.94
10992;BME280;5549;47.028;15.514;2022-10-03T09:30:52;96985.81;;;19.66;49.95
10992;BME280;5549;47.028;15.514;2022-10-03T09:33:56;96983.47;;;19.94;45.79
10992;BME280;5549;47.028;15.514;2022-10-03T09:37:20;96986.41;;;19.76;41.04
10992;BME280;5549;47.028;15.514;2022-10-03T09:47:28;96990.66;;;19.62;42.10
10992;BME280;5549;47.028;15.514;2022-10-03T09:50:53;97000.88;;;19.42;38.51
10992;BME280;5549;47.028;15.514;2022-10-03T10:00:20;97004.75;;;19.71;44.48
10992;BME280;5549;47.028;15.514;2022-10-03T10:06:36;96993.53;;;20.52;41.96
10992;BME280;5549;47.028;15.514;2022-10-03T10:09:40;96982.34;;;20.71;37.94
10992;BME280;5549;47.028;15.514;2022-10-03T10:12:50;96985.91;;;21.16;41.96
10992;BME280;5549;47.028;15.514;2022-10-03T10:16:13;96979.72;;;21.60;38.86
10992;BME280;5549;47.028;15.514;2022-10-03T10:19:19;96977.06;;;21.81;39.05
10992;BME280;5549;47.028;15.514;2022-10-03T10:22:35;96972.66;;;22.09;39.47
10992;BME280;5549;47.028;15.514;2022-10-03T10:25:35;96968.72;;;22.27;37.69
10992;BME280;5549;47.028;15.514;2022-10-03T10:28:46;96971.59;;;21.89;34.72
10992;BME280;5549;47.028;15.514;2022-10-03T10:32:10;96971.81;;;22.52;37.57
10992;BME280;5549;47.028;15.514;2022-10-03T10:35:26;96975.69;;;22.49;33.93
10992;BME280;5549;47.028;15.514;2022-10-03T10:38:29;96974.41;;;21.81;35.08
10992;BME280;5549;47.028;15.514;2022-10-03T10:41:56;96973.19;;;21.48;35.41
10992;BME280;5549;47.028;15.514;2022-10-03T10:48:56;96978.00;;;21.08;37.03
10992;BME280;5549;47.028;15.514;2022-10-03T10:56:07;96977.72;;;21.18;36.23
10992;BME280;5549;47.028;15.514;2022-10-03T10:59:36;96970.47;;;21.26;33.46
10992;BME280;5549;47.028;15.514;2022-10-03T11:06:51;96968.06;;;21.31;35.60
10992;BME280;5549;47.028;15.514;2022-10-03T11:10:31;96963.94;;;20.76;34.47
10992;BME280;5549;47.028;15.514;2022-10-03T11:13:53;96968.69;;;20.52;33.49
10992;BME280;5549;47.028;15.514;2022-10-03T11:17:21;96968.41;;;20.99;35.33
10992;BME280;5549;47.028;15.514;2022-10-03T11:20:43;96960.16;;;21.23;33.97
10992;BME280;5549;47.028;15.514;2022-10-03T11:27:22;96962.81;;;20.56;32.48
10992;BME280;5549;47.028;15.514;2022-10-03T11:30:42;96972.38;;;21.03;34.12
10992;BME280;5549;47.028;15.514;2022-10-03T11:37:07;96966.94;;;21.11;34.05
10992;BME280;5549;47.028;15.514;2022-10-03T11:39:46;96965.09;;;20.97;33.25
10992;BME280;5549;47.028;15.514;2022-10-03T11:42:30;96972.31;;;20.73;35.38
10992;BME280;5549;47.028;15.514;2022-10-03T11:45:17;96973.19;;;20.89;35.93
10992;BME280;5549;47.028;15.514;2022-10-03T11:47:58;96966.22;;;20.50;34.25
10992;BME280;5549;47.028;15.514;2022-10-03T11:50:42;96958.22;;;20.50;35.03
10992;BME280;5549;47.028;15.514;2022-10-03T11:53:43;96960.28;;;20.77;36.15
10992;BME280;5549;47.028;15.514;2022-10-03T11:56:32;96958.88;;;20.06;34.25
10992;BME280;5549;47.028;15.514;2022-10-03T11:59:33;96950.59;;;20.01;36.37
10992;BME280;5549;47.028;15.514;2022-10-03T12:02:52;96948.19;;;19.61;35.26
10992;BME280;5549;47.028;15.514;2022-10-03T12:05:38;96946.97;;;19.71;34.38
10992;BME280;5549;47.028;15.514;2022-10-03T12:08:20;96946.25;;;19.54;34.38
10992;BME280;5549;47.028;15.514;2022-10-03T12:11:16;96943.00;;;19.67;33.93
10992;BME280;5549;47.028;15.514;2022-10-03T12:14:04;96943.88;;;19.60;33.96
10992;BME280;5549;47.028;15.514;2022-10-03T12:16:49;96939.81;;;19.72;34.46
10992;BME280;5549;47.028;15.514;2022-10-03T12:19:29;96940.97;;;19.38;35.87
10992;BME280;5549;47.028;15.514;2022-10-03T12:22:15;96939.34;;;19.29;35.48
10992;BME280;5549;47.028;15.514;2022-10-03T12:24:49;96949.31;;;19.35;35.83
10992;BME280;5549;47.028;15.514;2022-10-03T12:27:24;96945.38;;;19.23;35.11
10992;BME280;5549;47.028;15.514;2022-10-03T12:30:01;96932.41;;;19.20;37.02
10992;BME280;5549;47.028;15.514;2022-10-03T12:32:44;96934.09;;;19.13;36.26
10992;BME280;5549;47.028;15.514;2022-10-03T12:35:35;96934.91;;;19.21;36.54
10992;BME280;5549;47.028;15.514;2022-10-03T12:38:29;96939.41;;;19.21;36.17
10992;BME280;5549;47.028;15.514;2022-10-03T12:41:14;96929.09;;;19.18;36.02
10992;BME280;5549;47.028;15.514;2022-10-03T12:44:03;96935.28;;;19.10;36.25
10992;BME280;5549;47.028;15.514;2022-10-03T12:46:44;96948.94;;;19.07;36.84
10992;BME280;5549;47.028;15.514;2022-10-03T12:49:28;96934.66;;;18.92;36.13
10992;BME280;5549;47.028;15.514;2022-10-03T12:52:15;96939.47;;;18.97;34.68
10992;BME280;5549;47.028;15.514;2022-10-03T12:54:52;96945.63;;;18.97;35.97
10992;BME280;5549;47.028;15.514;2022-10-03T12:57:47;96943.13;;;18.96;35.72
10992;BME280;5549;47.028;15.514;2022-10-03T13:00:21;96946.09;;;19.09;36.09
10992;BME280;5549;47.028;15.514;2022-10-03T13:03:12;96942.09;;;19.05;36.92
10992;BME280;5549;47.028;15.514;2022-10-03T13:06:33;96948.75;;;19.01;36.61
10992;BME280;5549;47.028;15.514;2022-10-03T13:09:22;96942.44;;;19.10;36.90
10992;BME280;5549;47.028;15.514;2022-10-03T13:12:04;96945.13;;;18.94;36.86
10992;BME280;5549;47.028;15.514;2022-10-03T13:18:21;96947.66;;;18.87;37.68
10992;BME280;5549;47.028;15.514;2022-10-03T13:21:02;96941.88;;;18.67;35.73
10992;BME280;5549;47.028;15.514;2022-10-03T13:23:43;96947.69;;;18.71;36.64
10992;BME280;5549;47.028;15.514;2022-10-03T13:26:19;96945.06;;;18.63;36.00
10992;BME280;5549;47.028;15.514;2022-10-03T13:29:28;96941.53;;;18.70;36.75
10992;BME280;5549;47.028;15.514;2022-10-03T13:32:16;96937.19;;;18.77;36.35
10992;BME280;5549;47.028;15.514;2022-10-03T13:35:16;96940.34;;;18.81;36.69
10992;BME280;5549;47.028;15.514;2022-10-03T13:38:57;96932.06;;;18.68;35.38
10992;BME280;5549;47.028;15.514;2022-10-03T13:41:41;96938.22;;;18.68;37.45
10992;BME280;5549;47.028;15.514;2022-10-03T13:44:16;96930.91;;;18.62;35.66
10992;BME280;5549;47.028;15.514;2022-10-03T13:46:53;96934.72;;;18.68;36.05
10992;BME280;5549;47.028;15.514;2022-10-03T13:49:26;96936.16;;;18.86;36.56
10992;BME280;5549;47.028;15.514;2022-10-03T13:52:09;96939.81;;;18.94;36.72
10992;BME280;5549;47.028;15.514;2022-10-03T13:55:25;96935.19;;;18.79;36.43
10992;BME280;5549;47.028;15.514;2022-10-03T13:58:24;96941.31;;;18.88;37.05
10992;BME280;5549;47.028;15.514;2022-10-03T14:01:28;96938.63;;;18.96;36.83
10992;BME280;5549;47.028;15.514;2022-10-03T14:07:22;96934.78;;;18.99;35.74
10992;BME280;5549;47.028;15.514;2022-10-03T14:10:21;96934.38;;;18.79;35.03
10992;BME280;5549;47.028;15.514;2022-10-03T14:13:15;96934.19;;;18.80;35.87
10992;BME280;5549;47.028;15.514;2022-10-03T14:15:53;96937.84;;;18.79;36.07
10992;BME280;5549;47.028;15.514;2022-10-03T14:18:40;96935.56;;;18.68;34.84
10992;BME280;5549;47.028;15.514;2022-10-03T14:21:36;96942.88;;;18.58;34.63
10992;BME280;5549;47.028;15.514;2022-10-03T14:24:26;96946.53;;;18.73;36.87
10992;BME280;5549;47.028;15.514;2022-10-03T14:27:07;96949.25;;;19.12;37.75
10992;BME280;5549;47.028;15.514;2022-10-03T14:29:53;96943.31;;;19.33;37.25
10992;BME280;5549;47.028;15.514;2022-10-03T14:32:30;96956.91;;;19.46;37.03
10992;BME280;5549;47.028;15.514;2022-10-03T14:35:18;96960.38;;;19.16;35.63
10992;BME280;5549;47.028;15.514;2022-10-03T14:37:57;96959.66;;;19.30;36.15
10992;BME280;5549;47.028;15.514;2022-10-03T14:40:39;96959.63;;;19.38;35.28
10992;BME280;5549;47.028;15.514;2022-10-03T14:43:30;96962.34;;;19.22;34.63
10992;BME280;5549;47.028;15.514;2022-10-03T14:46:02;96964.34;;;18.65;35.28
10992;BME280;5549;47.028;15.514;2022-10-03T14:48:40;96965.31;;;18.72;36.03
10992;BME280;5549;47.028;15.514;2022-10-03T14:51:18;96968.63;;;18.82;35.43
10992;BME280;5549;47.028;15.514;2022-10-03T14:53:54;96967.31;;;18.70;35.07
10992;BME280;5549;47.028;15.514;2022-10-03T14:56:33;96972.28;;;18.73;36.21
10992;BME280;5549;47.028;15.514;2022-10-03T14:59:12;96967.66;;;18.50;36.22
10992;BME280;5549;47.028;15.514;2022-10-03T15:01:50;96971.81;;;18.37;36.75
10992;BME280;5549;47.028;15.514;2022-10-03T15:04:31;96971.81;;;18.53;37.01
10992;BME280;5549;47.028;15.514;2022-10-03T15:07:01;96963.84;;;18.28;36.82
10992;BME280;5549;47.028;15.514;2022-10-03T15:09:42;96967.34;;;18.05;35.66
10992;BME280;5549;47.028;15.514;2022-10-03T15:12:18;96961.53;;;18.09;36.52
10992;BME280;5549;47.028;15.514;2022-10-03T15:14:55;96964.34;;;18.00;36.77
10992;BME280;5549;47.028;15.514;2022-10-03T15:17:30;96964.50;;;17.82;35.84
10992;BME280;5549;47.028;15.514;2022-10-03T15:20:03;96965.19;;;18.00;35.95
10992;BME280;5549;47.028;15.514;2022-10-03T15:22:33;96963.50;;;17.91;34.41
10992;BME280;5549;47.028;15.514;2022-10-03T15:25:07;96968.16;;;17.89;35.50
10992;BME280;5549;47.028;15.514;2022-10-03T15:27:40;96969.06;;;17.63;35.79
10992;BME280;5549;47.028;15.514;2022-10-03T15:30:20;96971.97;;;17.86;37.03
10992;BME280;5549;47.028;15.514;2022-10-03T15:32:52;96976.88;;;17.65;36.37
10992;BME280;5549;47.028;15.514;2022-10-03T15:35:26;96969.63;;;17.67;36.84
10992;BME280;5549;47.028;15.514;2022-10-03T15:38:09;96975.44;;;17.71;37.18
10992;BME280;5549;47.028;15.514;2022-10-03T15:40:45;96968.03;;;17.40;35.74
10992;BME280;5549;47.028;15.514;2022-10-03T15:43:29;96979.63;;;17.39;36.62
10992;BME280;5549;47.028;15.514;2022-10-03T15:46:01;96975.00;;;17.41;36.08
10992;BME280;5549;47.028;15.514;2022-10-03T15:48:34;96978.19;;;17.53;37.42
10992;BME280;5549;47.028;15.514;2022-10-03T15:51:12;96985.34;;;17.60;37.13
10992;BME280;5549;47.028;15.514;2022-10-03T15:53:47;96998.91;;;17.49;35.55
10992;BME280;5549;47.028;15.514;2022-10-03T15:56:23;96985.00;;;17.55;36.20
10992;BME280;5549;47.028;15.514;2022-10-03T15:59:00;96990.66;;;17.60;36.77
10992;BME280;5549;47.028;15.514;2022-10-03T16:01:35;96986.50;;;17.58;36.02
10992;BME280;5549;47.028;15.514;2022-10-03T16:04:16;96992.94;;;17.47;36.79
10992;BME280;5549;47.028;15.514;2022-10-03T16:06:50;96997.25;;;17.48;37.53
10992;BME280;5549;47.028;15.514;2022-10-03T16:09:26;97000.56;;;17.50;38.30
10992;BME280;5549;47.028;15.514;2022-10-03T16:12:19;97009.19;;;17.44;35.96
10992;BME280;5549;47.028;15.514;2022-10-03T16:15:01;97008.00;;;17.39;36.85
10992;BME280;5549;47.028;15.514;2022-10-03T16:17:44;97011.41;;;17.23;36.36
10992;BME280;5549;47.028;15.514;2022-10-03T16:20:23;97005.53;;;17.11;37.04
10992;BME280;5549;47.028;15.514;2022-10-03T16:22:58;97002.31;;;16.99;36.77
10992;BME280;5549;47.028;15.514;2022-10-03T16:25:41;97008.41;;;16.92;37.46
10992;BME280;5549;47.028;15.514;2022-10-03T16:28:16;97010.88;;;16.85;38.41
10992;BME280;5549;47.028;15.514;2022-10-03T16:30:53;97004.69;;;16.77;37.01
10992;BME280;5549;47.028;15.514;2022-10-03T16:33:26;97003.34;;;16.55;37.20
10992;BME280;5549;47.028;15.514;2022-10-03T16:36:05;97010.56;;;16.45;37.69
10992;BME280;5549;47.028;15.514;2022-10-03T16:38:37;97016.03;;;16.43;38.04
10992;BME280;5549;47.028;15.514;2022-10-03T16:41:14;97021.03;;;16.28;38.27
10992;BME280;5549;47.028;15.514;2022-10-03T16:43:55;97029.00;;;16.11;39.88
10992;BME280;5549;47.028;15.514;2022-10-03T16:46:27;97030.97;;;15.91;40.52
10992;BME280;5549;47.028;15.514;2022-10-03T16:49:00;97027.84;;;15.78;40.86
10992;BME280;5549;47.028;15.514;2022-10-03T16:51:55;97032.00;;;15.62;40.47
10992;BME280;5549;47.028;15.514;2022-10-03T16:54:27;97036.31;;;15.54;41.44
10992;BME280;5549;47.028;15.514;2022-10-03T16:57:04;97044.00;;;15.47;40.69
10992;BME280;5549;47.028;15.514;2022-10-03T16:59:36;97040.28;;;15.40;40.88
10992;BME280;5549;47.028;15.514;2022-10-03T17:02:09;97047.38;;;15.39;41.06
10992;BME280;5549;47.028;15.514;2022-10-03T17:04:46;97051.75;;;15.31;40.82
10992;BME280;5549;47.028;15.514;2022-10-03T17:07:21;97050.50;;;15.25;41.13
10992;BME280;5549;47.028;15.514;2022-10-03T17:09:56;97059.44;;;15.24;42.03
10992;BME280;5549;47.028;15.514;2022-10-03T17:12:30;97062.38;;;15.21;40.44
10992;BME280;5549;47.028;15.514;2022-10-03T17:15:04;97062.50;;;15.20;40.08
10992;BME280;5549;47.028;15.514;2022-10-03T17:17:43;97067.50;;;15.23;40.91
10992;BME280;5549;47.028;15.514;2022-10-03T17:20:18;97076.44;;;15.22;40.80
10992;BME280;5549;47.028;15.514;2022-10-03T17:22:57;97068.38;;;15.14;41.26